createdAt,value
2017-12-26T00:00:21.941Z,15.50
2017-12-26T00:02:48.680Z,17.08
2017-12-26T00:05:15.422Z,16.33
2017-12-26T00:07:42.203Z,15.35
2017-12-26T00:10:08.963Z,16.23
2017-12-26T00:12:35.678Z,14.87
2017-12-26T00:15:02.655Z,13.88
2017-12-26T00:17:29.374Z,13.68
2017-12-26T00:19:56.148Z,14.85
2017-12-26T00:22:22.893Z,15.23
2017-12-26T00:24:49.649Z,13.80
2017-12-26T00:27:16.380Z,14.93
2017-12-26T00:29:43.127Z,14.00
2017-12-26T00:32:09.841Z,14.87
2017-12-26T00:34:36.565Z,14.93
2017-12-26T00:37:03.301Z,15.30
2017-12-26T00:39:30.032Z,16.90
2017-12-26T00:41:56.779Z,15.45
2017-12-26T00:44:23.532Z,15.15
2017-12-26T00:46:50.271Z,12.20
2017-12-26T00:49:17.072Z,15.45
2017-12-26T00:51:43.847Z,14.10
2017-12-26T00:54:10.592Z,16.70
2017-12-26T00:56:37.329Z,14.73
2017-12-26T00:59:04.064Z,16.00
2017-12-26T01:01:30.805Z,15.25
2017-12-26T01:03:57.548Z,17.05
2017-12-26T01:06:24.287Z,16.85
2017-12-26T01:08:51.013Z,16.27
2017-12-26T01:11:17.771Z,13.38
2017-12-26T01:13:44.492Z,14.85
2017-12-26T01:16:11.215Z,14.98
2017-12-26T01:18:37.946Z,15.15
2017-12-26T01:21:04.686Z,16.00
2017-12-26T01:23:31.425Z,13.23
2017-12-26T01:25:58.162Z,15.10
2017-12-26T01:28:24.904Z,14.87
2017-12-26T01:30:51.619Z,15.90
2017-12-26T01:33:18.353Z,17.67
2017-12-26T01:35:45.093Z,16.33
2017-12-26T01:38:11.811Z,14.23
2017-12-26T01:40:38.522Z,13.95
2017-12-26T01:43:05.253Z,16.40
2017-12-26T01:45:31.990Z,15.00
2017-12-26T01:47:58.735Z,19.42
2017-12-26T01:50:25.471Z,20.50
2017-12-26T01:52:52.219Z,20.60
2017-12-26T01:55:18.969Z,18.00
2017-12-26T01:57:45.724Z,18.75
2017-12-26T02:00:12.489Z,23.40
2017-12-26T02:02:39.218Z,22.95
2017-12-26T02:05:06.002Z,24.02
2017-12-26T02:07:32.763Z,19.92
2017-12-26T02:09:59.482Z,19.83
2017-12-26T02:12:26.206Z,18.85
2017-12-26T02:14:52.930Z,18.83
2017-12-26T02:17:19.683Z,18.20
2017-12-26T02:19:46.436Z,19.20
2017-12-26T02:22:13.155Z,19.25
2017-12-26T02:24:39.904Z,17.33
2017-12-26T02:27:06.639Z,15.82
2017-12-26T02:29:33.375Z,13.38
2017-12-26T02:32:00.107Z,12.77
2017-12-26T02:34:26.861Z,13.55
2017-12-26T02:36:53.603Z,14.32
2017-12-26T02:39:20.339Z,14.60
2017-12-26T02:41:47.092Z,14.70
2017-12-26T02:44:13.824Z,15.43
2017-12-26T02:46:40.557Z,15.52
2017-12-26T02:49:07.306Z,14.70
2017-12-26T02:51:34.026Z,16.12
2017-12-26T02:54:00.755Z,15.55
2017-12-26T02:56:27.508Z,16.15
2017-12-26T02:58:54.228Z,15.45
2017-12-26T03:01:20.964Z,15.25
2017-12-26T03:03:47.707Z,14.10
2017-12-26T03:06:14.435Z,16.00
2017-12-26T03:08:41.171Z,15.05
2017-12-26T03:11:07.923Z,15.13
2017-12-26T03:13:34.728Z,14.73
2017-12-26T03:16:01.473Z,13.98
2017-12-26T03:18:28.210Z,13.90
2017-12-26T03:20:54.926Z,10.60
2017-12-26T03:23:21.654Z,12.32
2017-12-26T03:25:48.383Z,11.27
2017-12-26T03:28:15.118Z,13.75
2017-12-26T03:30:41.859Z,12.20
2017-12-26T03:33:08.621Z,13.27
2017-12-26T03:35:35.447Z,12.63
2017-12-26T03:38:02.199Z,13.15
2017-12-26T03:40:28.954Z,12.93
2017-12-26T03:42:55.670Z,13.30
2017-12-26T03:45:22.411Z,13.40
2017-12-26T03:47:49.148Z,13.07
2017-12-26T03:50:15.900Z,14.23
2017-12-26T03:52:42.623Z,13.98
2017-12-26T03:55:09.370Z,14.07
2017-12-26T03:57:36.116Z,14.43
2017-12-26T04:00:02.856Z,14.48
2017-12-26T04:02:29.597Z,16.02
2017-12-26T04:04:56.339Z,14.48
2017-12-26T04:07:23.078Z,14.30
2017-12-26T04:09:49.817Z,13.95
2017-12-26T04:12:16.532Z,15.57
2017-12-26T04:14:43.332Z,14.27
2017-12-26T04:17:10.061Z,14.32
2017-12-26T04:19:36.782Z,11.40
2017-12-26T04:22:03.512Z,12.37
2017-12-26T04:24:30.319Z,13.75
2017-12-26T04:26:57.120Z,12.90
2017-12-26T04:29:24.769Z,13.15
2017-12-26T04:31:51.512Z,13.90
2017-12-26T04:34:18.251Z,14.32
2017-12-26T04:36:44.991Z,13.65
2017-12-26T04:39:11.761Z,15.25
2017-12-26T04:41:38.491Z,15.15
2017-12-26T04:44:05.223Z,16.20
2017-12-26T04:46:31.953Z,15.00
2017-12-26T04:48:58.669Z,17.40
2017-12-26T04:51:25.393Z,15.85
2017-12-26T04:53:52.130Z,14.68
2017-12-26T04:56:18.868Z,16.58
2017-12-26T04:58:45.599Z,17.45
2017-12-26T05:01:12.342Z,16.67
2017-12-26T05:03:39.082Z,16.20
2017-12-26T05:06:05.812Z,14.35
2017-12-26T05:08:32.558Z,15.57
2017-12-26T05:10:59.293Z,14.50
2017-12-26T05:13:26.026Z,15.40
2017-12-26T05:15:52.781Z,15.18
2017-12-26T05:18:19.524Z,16.23
2017-12-26T05:20:46.256Z,14.82
2017-12-26T05:23:12.992Z,13.68
2017-12-26T05:25:39.722Z,15.52
2017-12-26T05:28:06.455Z,15.38
2017-12-26T05:30:33.207Z,16.60
2017-12-26T05:32:59.939Z,14.85
2017-12-26T05:35:26.657Z,16.62
2017-12-26T05:37:53.408Z,13.77
2017-12-26T05:40:20.142Z,14.10
2017-12-26T05:42:46.881Z,15.55
2017-12-26T05:45:13.619Z,15.30
2017-12-26T05:47:40.345Z,15.23
2017-12-26T05:50:07.071Z,14.25
2017-12-26T05:52:33.823Z,14.38
2017-12-26T05:55:00.568Z,15.65
2017-12-26T05:57:27.295Z,16.23
2017-12-26T05:59:54.053Z,14.60
2017-12-26T06:02:20.765Z,14.65
2017-12-26T06:04:47.486Z,14.82
2017-12-26T06:07:14.239Z,14.25
2017-12-26T06:09:40.959Z,14.32
2017-12-26T06:12:07.685Z,13.60
2017-12-26T06:14:34.425Z,15.18
2017-12-26T06:17:01.139Z,14.57
2017-12-26T06:19:27.863Z,14.00
2017-12-26T06:21:54.602Z,14.27
2017-12-26T06:24:21.323Z,14.65
2017-12-26T06:26:48.102Z,14.20
2017-12-26T06:29:14.839Z,14.90
2017-12-26T06:31:41.560Z,14.35
2017-12-26T06:34:08.316Z,15.23
2017-12-26T06:36:35.057Z,13.52
2017-12-26T06:39:01.799Z,13.10
2017-12-26T06:41:28.528Z,14.18
2017-12-26T06:43:55.250Z,14.02
2017-12-26T06:46:21.979Z,15.68
2017-12-26T06:48:48.704Z,14.38
2017-12-26T06:51:15.459Z,14.85
2017-12-26T06:53:42.177Z,14.55
2017-12-26T06:56:08.903Z,13.82
2017-12-26T06:58:35.646Z,15.05
2017-12-26T07:01:02.371Z,13.70
2017-12-26T07:03:29.096Z,14.40
2017-12-26T07:05:55.844Z,14.52
2017-12-26T07:08:22.560Z,13.10
2017-12-26T07:10:49.296Z,12.95
2017-12-26T07:13:16.033Z,13.75
2017-12-26T07:15:42.763Z,14.52
2017-12-26T07:18:09.494Z,13.07
2017-12-26T07:20:42.056Z,14.13
2017-12-26T07:23:08.829Z,15.60
2017-12-26T07:25:35.564Z,14.27
2017-12-26T07:28:02.324Z,14.20
2017-12-26T07:30:29.056Z,15.07
2017-12-26T07:32:55.769Z,14.55
2017-12-26T07:35:22.510Z,13.13
2017-12-26T07:37:49.232Z,14.45
2017-12-26T07:40:15.965Z,14.50
2017-12-26T07:42:42.762Z,13.60
2017-12-26T07:45:09.482Z,14.50
2017-12-26T07:47:36.208Z,14.13
2017-12-26T07:50:02.917Z,14.87
2017-12-26T07:52:29.638Z,14.75
2017-12-26T07:54:56.368Z,13.45
2017-12-26T07:57:23.097Z,14.00
2017-12-26T07:59:49.815Z,12.05
2017-12-26T08:02:16.547Z,12.80
2017-12-26T08:04:43.307Z,14.30
2017-12-26T08:07:10.438Z,13.45
2017-12-26T08:09:37.173Z,14.55
2017-12-26T08:12:03.934Z,14.98
2017-12-26T08:14:30.682Z,14.57
2017-12-26T08:17:02.460Z,16.70
2017-12-26T08:19:29.718Z,14.93
2017-12-26T08:21:56.448Z,14.63
2017-12-26T08:24:23.165Z,14.85
2017-12-26T08:26:49.946Z,17.33
2017-12-26T08:29:16.689Z,17.15
2017-12-26T08:31:43.425Z,18.55
2017-12-26T08:34:10.185Z,18.45
2017-12-26T08:36:36.922Z,19.70
2017-12-26T08:39:03.674Z,18.73
2017-12-26T08:41:30.425Z,19.02
2017-12-26T08:43:57.147Z,18.58
2017-12-26T08:46:23.859Z,18.52
2017-12-26T08:48:50.674Z,20.95
2017-12-26T08:51:17.435Z,20.60
2017-12-26T08:53:44.166Z,20.20
2017-12-26T08:56:10.926Z,20.27
2017-12-26T08:58:37.657Z,17.95
2017-12-26T09:01:04.411Z,18.73
2017-12-26T09:03:31.162Z,16.80
2017-12-26T09:05:57.920Z,19.27
2017-12-26T09:08:24.681Z,19.08
2017-12-26T09:10:51.452Z,18.02
2017-12-26T09:13:18.174Z,15.60
2017-12-26T09:15:44.920Z,16.50
2017-12-26T09:18:11.680Z,15.95
2017-12-26T09:20:38.427Z,16.45
2017-12-26T09:23:05.176Z,14.85
2017-12-26T09:25:31.941Z,14.20
2017-12-26T09:27:58.659Z,14.90
2017-12-26T09:30:25.391Z,16.42
2017-12-26T09:32:52.134Z,14.52
2017-12-26T09:35:18.877Z,14.07
2017-12-26T09:37:45.609Z,14.35
2017-12-26T09:40:12.350Z,14.83
2017-12-26T09:42:39.069Z,13.83
2017-12-26T09:45:05.795Z,14.33
2017-12-26T09:47:32.609Z,13.30
2017-12-26T09:49:59.363Z,14.50
2017-12-26T09:52:26.096Z,13.27
2017-12-26T09:54:52.857Z,17.33
2017-12-26T09:57:19.673Z,14.47
2017-12-26T09:59:46.439Z,14.23
2017-12-26T10:02:13.194Z,12.70
2017-12-26T10:04:39.918Z,12.20
2017-12-26T10:07:06.620Z,10.53
2017-12-26T10:09:33.339Z,9.03
2017-12-26T10:12:00.069Z,10.97
2017-12-26T10:14:26.796Z,9.30
2017-12-26T10:16:53.516Z,10.60
2017-12-26T10:19:20.238Z,10.80
2017-12-26T10:21:46.944Z,10.63
2017-12-26T10:24:13.664Z,10.60
2017-12-26T10:26:40.415Z,12.63
2017-12-26T10:29:07.146Z,12.07
2017-12-26T10:31:33.916Z,11.70
2017-12-26T10:34:00.643Z,10.13
2017-12-26T10:36:27.390Z,10.37
2017-12-26T10:38:54.131Z,9.37
2017-12-26T10:41:20.876Z,9.70
2017-12-26T10:43:47.665Z,10.10
2017-12-26T10:46:14.393Z,9.97
2017-12-26T10:48:41.118Z,12.57
2017-12-26T10:51:07.835Z,11.37
2017-12-26T10:53:34.575Z,13.97
2017-12-26T10:56:01.318Z,13.10
2017-12-26T10:58:28.038Z,12.37
2017-12-26T11:00:54.770Z,11.23
2017-12-26T11:03:21.483Z,11.60
2017-12-26T11:05:48.217Z,13.10
2017-12-26T11:08:14.959Z,11.53
2017-12-26T11:10:41.695Z,10.03
2017-12-26T11:13:08.406Z,9.30
2017-12-26T11:15:35.183Z,9.30
2017-12-26T11:18:01.899Z,9.23
2017-12-26T11:20:28.617Z,9.80
2017-12-26T11:22:55.371Z,9.77
2017-12-26T11:25:22.082Z,9.77
2017-12-26T11:27:48.949Z,11.40
2017-12-26T11:30:15.694Z,11.30
2017-12-26T11:32:42.432Z,11.10
2017-12-26T11:35:09.151Z,11.63
2017-12-26T11:37:35.911Z,11.07
2017-12-26T11:40:02.632Z,10.77
2017-12-26T11:42:29.365Z,11.83
2017-12-26T11:44:56.125Z,13.33
2017-12-26T11:47:22.872Z,14.30
2017-12-26T11:49:49.604Z,11.73
2017-12-26T11:52:16.358Z,12.03
2017-12-26T11:54:43.078Z,12.00
2017-12-26T11:57:09.835Z,12.00
2017-12-26T11:59:36.574Z,12.47
2017-12-26T12:02:03.293Z,12.07
2017-12-26T12:04:30.035Z,13.03
2017-12-26T12:06:56.774Z,11.03
2017-12-26T12:09:23.503Z,11.93
2017-12-26T12:11:50.224Z,11.93
2017-12-26T12:14:16.962Z,12.80
2017-12-26T12:16:43.689Z,11.50
2017-12-26T12:19:10.411Z,11.20
2017-12-26T12:21:37.172Z,11.43
2017-12-26T12:24:03.899Z,11.27
2017-12-26T12:26:30.621Z,12.00
2017-12-26T12:28:57.364Z,11.90
2017-12-26T12:31:24.083Z,12.07
2017-12-26T12:33:50.822Z,12.00
2017-12-26T12:36:17.591Z,11.23
2017-12-26T12:38:44.327Z,10.67
2017-12-26T12:41:11.037Z,10.83
2017-12-26T12:43:37.790Z,11.60
2017-12-26T12:46:04.593Z,10.53
2017-12-26T12:48:31.312Z,11.10
2017-12-26T12:50:58.043Z,11.90
2017-12-26T12:53:24.773Z,13.10
2017-12-26T12:55:51.495Z,10.83
2017-12-26T12:58:18.238Z,11.27
2017-12-26T13:00:44.962Z,11.57
2017-12-26T13:03:11.698Z,12.43
2017-12-26T13:05:38.451Z,11.10
2017-12-26T13:08:05.232Z,11.33
2017-12-26T13:10:31.961Z,10.97
2017-12-26T13:12:58.715Z,12.40
2017-12-26T13:15:25.434Z,12.07
2017-12-26T13:17:52.154Z,11.53
2017-12-26T13:20:18.888Z,11.63
2017-12-26T13:22:45.618Z,11.23
2017-12-26T13:25:12.360Z,11.03
2017-12-26T13:27:39.115Z,12.60
2017-12-26T13:30:05.886Z,10.13
2017-12-26T13:32:32.607Z,11.87
2017-12-26T13:34:59.356Z,11.73
2017-12-26T13:37:26.076Z,11.23
2017-12-26T13:39:52.823Z,10.07
2017-12-26T13:42:19.584Z,12.00
2017-12-26T13:44:46.306Z,10.90
2017-12-26T13:47:13.035Z,11.10
2017-12-26T13:49:39.754Z,11.63
2017-12-26T13:52:06.481Z,11.00
2017-12-26T13:54:33.190Z,11.10
2017-12-26T13:56:59.938Z,11.70
2017-12-26T13:59:26.660Z,10.97
2017-12-26T14:01:53.382Z,11.43
2017-12-26T14:04:20.156Z,11.40
2017-12-26T14:06:46.884Z,10.30
2017-12-26T14:09:13.630Z,12.00
2017-12-26T14:11:40.368Z,12.60
2017-12-26T14:14:07.108Z,11.77
2017-12-26T14:16:33.860Z,11.80
2017-12-26T14:19:00.595Z,12.70
2017-12-26T14:21:27.318Z,14.97
2017-12-26T14:23:54.055Z,12.03
2017-12-26T14:26:20.794Z,14.13
2017-12-26T14:28:47.514Z,13.07
2017-12-26T14:31:14.258Z,12.00
2017-12-26T14:33:40.977Z,11.87
2017-12-26T14:36:07.690Z,11.60
2017-12-26T14:38:34.400Z,11.03
2017-12-26T14:41:01.141Z,12.90
2017-12-26T14:43:27.870Z,10.30
2017-12-26T14:45:54.586Z,10.20
2017-12-26T14:48:21.317Z,11.20
2017-12-26T14:50:48.025Z,10.73
2017-12-26T14:53:14.758Z,11.70
2017-12-26T14:55:41.541Z,12.07
2017-12-26T14:58:08.252Z,11.10
2017-12-26T15:00:34.974Z,10.20
2017-12-26T15:03:01.707Z,10.80
2017-12-26T15:05:28.458Z,11.70
2017-12-26T15:07:55.179Z,10.83
2017-12-26T15:10:21.911Z,10.90
2017-12-26T15:12:48.642Z,10.43
2017-12-26T15:15:15.393Z,9.87
2017-12-26T15:17:42.168Z,9.30
2017-12-26T15:20:08.900Z,9.87
2017-12-26T15:22:35.628Z,9.80
2017-12-26T15:25:02.363Z,9.37
2017-12-26T15:27:29.110Z,9.20
2017-12-26T15:29:55.836Z,9.13
2017-12-26T15:32:22.569Z,8.97
2017-12-26T15:34:49.294Z,9.40
2017-12-26T15:37:16.003Z,8.40
2017-12-26T15:39:42.749Z,8.83
2017-12-26T15:42:09.469Z,8.80
2017-12-26T15:44:36.205Z,9.67
2017-12-26T15:47:02.993Z,10.40
2017-12-26T15:49:29.709Z,11.33
2017-12-26T15:51:56.421Z,11.20
2017-12-26T15:54:23.159Z,9.27
2017-12-26T15:56:49.885Z,9.47
2017-12-26T15:59:16.632Z,10.80
2017-12-26T16:01:43.366Z,10.27
2017-12-26T16:04:10.073Z,11.13
2017-12-26T16:06:36.826Z,10.33
2017-12-26T16:09:03.567Z,12.03
2017-12-26T16:11:30.298Z,11.20
2017-12-26T16:13:57.016Z,10.37
2017-12-26T16:16:23.751Z,10.57
2017-12-26T16:18:50.511Z,15.90
2017-12-26T16:21:17.239Z,32.50
2017-12-26T16:23:43.970Z,44.70
2017-12-26T16:26:10.675Z,42.17
2017-12-26T16:28:37.475Z,40.07
2017-12-26T16:31:04.215Z,31.50
2017-12-26T16:33:30.938Z,30.40
2017-12-26T16:35:57.664Z,23.97
2017-12-26T16:38:24.373Z,19.40
2017-12-26T16:40:51.082Z,17.43
2017-12-26T16:43:17.797Z,16.40
2017-12-26T16:45:44.534Z,16.37
2017-12-26T16:48:11.386Z,16.20
2017-12-26T16:50:38.106Z,15.00
2017-12-26T16:53:04.821Z,15.30
2017-12-26T16:55:31.538Z,13.47
2017-12-26T16:57:58.253Z,15.13
2017-12-26T17:00:24.996Z,13.40
2017-12-26T17:02:51.720Z,13.47
2017-12-26T17:05:18.425Z,14.90
2017-12-26T17:07:45.161Z,13.60
2017-12-26T17:10:11.906Z,14.73
2017-12-26T17:12:38.625Z,13.87
2017-12-26T17:15:05.350Z,12.10
2017-12-26T17:17:32.081Z,12.57
2017-12-26T17:19:58.795Z,13.27
2017-12-26T17:22:25.536Z,12.97
2017-12-26T17:24:52.302Z,12.57
2017-12-26T17:27:19.017Z,12.83
2017-12-26T17:29:45.744Z,13.40
2017-12-26T17:32:12.478Z,13.80
2017-12-26T17:34:39.188Z,13.50
2017-12-26T17:37:05.941Z,13.43
2017-12-26T17:39:32.672Z,13.40
2017-12-26T17:41:59.400Z,14.67
2017-12-26T17:44:26.150Z,13.10
2017-12-26T17:46:52.881Z,13.70
2017-12-26T17:49:19.624Z,13.20
2017-12-26T17:51:46.378Z,14.60
2017-12-26T17:54:13.122Z,14.97
2017-12-26T17:56:39.895Z,14.57
2017-12-26T17:59:06.663Z,12.70
2017-12-26T18:01:33.373Z,11.70
2017-12-26T18:04:00.095Z,11.90
2017-12-26T18:06:26.825Z,11.50
2017-12-26T18:08:53.647Z,12.77
2017-12-26T18:11:20.558Z,12.17
2017-12-26T18:13:47.535Z,12.97
2017-12-26T18:16:14.260Z,12.97
2017-12-26T18:18:41.036Z,13.27
2017-12-26T18:21:07.752Z,13.33
2017-12-26T18:23:34.472Z,12.70
2017-12-26T18:26:01.303Z,12.67
2017-12-26T18:31:00.078Z,13.17
2017-12-26T18:33:26.794Z,14.17
2017-12-26T18:35:53.508Z,12.63
2017-12-26T18:38:20.217Z,13.83
2017-12-26T18:40:46.940Z,12.50
2017-12-26T18:43:13.700Z,13.90
2017-12-26T18:45:40.449Z,14.40
2017-12-26T18:48:07.158Z,12.43
2017-12-26T18:50:34.986Z,14.30
2017-12-26T18:53:07.607Z,12.03
2017-12-26T18:55:42.470Z,13.37
2017-12-26T18:58:13.812Z,13.03
2017-12-26T19:00:47.742Z,13.20
2017-12-26T19:03:20.026Z,13.70
2017-12-26T19:06:00.413Z,13.00
2017-12-26T19:08:39.922Z,12.97
2017-12-26T19:11:23.813Z,13.80
2017-12-26T19:13:59.735Z,11.87
2017-12-26T19:16:35.630Z,12.77
2017-12-26T19:19:12.650Z,12.40
2017-12-26T19:21:41.415Z,14.50
2017-12-26T19:24:18.053Z,13.40
2017-12-26T19:26:54.909Z,12.20
2017-12-26T19:29:44.325Z,12.53
2017-12-26T19:32:29.559Z,12.80
2017-12-26T19:35:09.177Z,14.73
2017-12-26T19:37:48.418Z,12.53
2017-12-26T19:40:19.886Z,13.27
2017-12-26T19:43:10.023Z,13.27
2017-12-26T19:45:48.345Z,12.73
2017-12-26T19:48:23.203Z,12.60
2017-12-26T19:50:54.633Z,12.40
2017-12-26T19:53:37.252Z,13.37
2017-12-26T19:56:13.197Z,12.60
2017-12-26T19:58:45.222Z,13.40
2017-12-26T20:01:12.088Z,14.60
2017-12-26T20:03:38.832Z,13.17
2017-12-26T20:06:05.595Z,13.13
2017-12-26T20:08:32.386Z,12.23
2017-12-26T20:10:59.117Z,14.00
2017-12-26T20:13:25.858Z,13.20
2017-12-26T20:15:52.561Z,12.43
2017-12-26T20:18:19.290Z,13.17
2017-12-26T20:20:46.014Z,11.47
2017-12-26T20:23:12.728Z,12.07
2017-12-26T20:25:39.452Z,12.80
2017-12-26T20:28:12.022Z,11.30
2017-12-26T20:30:38.772Z,12.43
2017-12-26T20:33:05.502Z,12.33
2017-12-26T20:35:32.226Z,12.00
2017-12-26T20:37:58.993Z,13.23
2017-12-26T20:40:25.741Z,11.07
2017-12-26T20:42:52.539Z,12.77
2017-12-26T20:45:19.381Z,12.67
2017-12-26T20:47:46.124Z,12.70
2017-12-26T20:50:12.909Z,13.37
2017-12-26T20:52:39.637Z,12.02
2017-12-26T20:55:06.360Z,10.97
2017-12-26T20:57:33.135Z,10.83
2017-12-26T20:59:59.854Z,11.35
2017-12-26T21:02:26.598Z,10.20
2017-12-26T21:04:53.351Z,11.25
2017-12-26T21:07:20.076Z,10.67
2017-12-26T21:09:46.807Z,11.38
2017-12-26T21:12:13.558Z,12.00
2017-12-26T21:14:40.291Z,11.82
2017-12-26T21:17:07.015Z,11.40
2017-12-26T21:19:33.770Z,11.48
2017-12-26T21:22:00.512Z,12.18
2017-12-26T21:24:27.253Z,11.02
2017-12-26T21:26:53.986Z,13.07
2017-12-26T21:29:20.717Z,11.25
2017-12-26T21:31:47.453Z,11.97
2017-12-26T21:34:14.192Z,12.00
2017-12-26T21:36:40.938Z,10.13
2017-12-26T21:39:07.689Z,12.27
2017-12-26T21:41:34.461Z,10.55
2017-12-26T21:44:01.207Z,9.38
2017-12-26T21:46:27.990Z,9.63
2017-12-26T21:48:54.758Z,10.43
2017-12-26T21:51:21.485Z,10.98
2017-12-26T21:53:48.205Z,10.93
2017-12-26T21:56:14.965Z,11.52
2017-12-26T21:58:41.705Z,11.57
2017-12-26T22:01:08.433Z,10.77
2017-12-26T22:03:35.192Z,10.57
2017-12-26T22:06:01.900Z,9.80
2017-12-26T22:08:28.611Z,9.97
2017-12-26T22:10:55.361Z,10.93
2017-12-26T22:13:22.073Z,9.87
2017-12-26T22:15:48.787Z,9.90
2017-12-26T22:18:15.550Z,11.17
2017-12-26T22:20:42.274Z,10.07
2017-12-26T22:23:09.006Z,10.90
2017-12-26T22:25:35.738Z,10.17
2017-12-26T22:28:02.472Z,10.50
2017-12-26T22:30:29.204Z,11.97
2017-12-26T22:32:55.943Z,10.63
2017-12-26T22:35:22.654Z,10.47
2017-12-26T22:37:49.392Z,11.27
2017-12-26T22:40:16.140Z,9.60
2017-12-26T22:42:42.864Z,11.20
2017-12-26T22:45:09.585Z,9.80
2017-12-26T22:47:36.331Z,11.00
2017-12-26T22:50:03.050Z,8.90
2017-12-26T22:52:29.791Z,10.73
2017-12-26T22:54:56.530Z,10.83
2017-12-26T22:57:23.246Z,11.20
2017-12-26T22:59:49.975Z,10.93
2017-12-26T23:02:16.722Z,10.05
2017-12-26T23:04:43.444Z,9.10
2017-12-26T23:07:10.257Z,9.68
2017-12-26T23:09:37.001Z,9.77
2017-12-26T23:12:03.719Z,9.27
2017-12-26T23:14:36.301Z,9.40
2017-12-26T23:17:21.818Z,10.13
2017-12-26T23:19:54.121Z,10.00
2017-12-26T23:22:20.875Z,9.32
2017-12-26T23:24:53.316Z,9.90
2017-12-26T23:27:36.890Z,9.75
2017-12-26T23:30:09.220Z,9.70
2017-12-26T23:32:41.820Z,10.45
2017-12-26T23:35:14.436Z,9.00
2017-12-26T23:37:46.996Z,8.97
2017-12-26T23:40:19.477Z,9.20
2017-12-26T23:42:51.907Z,11.35
2017-12-26T23:45:33.523Z,9.32
2017-12-26T23:48:05.978Z,10.45
2017-12-26T23:50:38.401Z,9.85
2017-12-26T23:53:10.803Z,8.53
2017-12-26T23:55:43.256Z,9.55
2017-12-26T23:58:15.776Z,10.05
